createdAt,value
2023-03-04T00:01:03.838Z,19.75
2023-03-04T00:03:32.151Z,18.60
2023-03-04T00:06:00.111Z,19.50
2023-03-04T00:08:28.132Z,19.55
2023-03-04T00:10:56.376Z,21.20
2023-03-04T00:13:25.070Z,18.40
2023-03-04T00:15:54.994Z,20.73
2023-03-04T00:18:22.850Z,17.75
2023-03-04T00:20:53.565Z,19.10
2023-03-04T00:23:21.570Z,20.30
2023-03-04T00:25:49.526Z,18.63
2023-03-04T00:28:17.882Z,18.95
2023-03-04T00:30:46.080Z,18.13
2023-03-04T00:33:15.351Z,18.30
2023-03-04T00:35:43.659Z,19.65
2023-03-04T00:38:11.698Z,18.63
2023-03-04T00:40:39.844Z,17.52
2023-03-04T00:43:07.799Z,19.67
2023-03-04T00:45:36.167Z,21.00
2023-03-04T00:48:04.417Z,19.50
2023-03-04T00:50:33.996Z,18.08
2023-03-04T00:53:02.932Z,20.52
2023-03-04T00:55:31.468Z,19.13
2023-03-04T00:57:59.401Z,16.92
2023-03-04T01:00:27.669Z,20.15
2023-03-04T01:02:55.703Z,19.55
2023-03-04T01:05:23.729Z,18.92
2023-03-04T01:07:53.339Z,18.50
2023-03-04T01:10:21.962Z,18.25
2023-03-04T01:12:50.032Z,17.70
2023-03-04T01:15:18.195Z,18.63
2023-03-04T01:17:47.045Z,16.77
2023-03-04T01:20:17.794Z,18.05
2023-03-04T01:22:45.764Z,18.02
2023-03-04T01:25:16.394Z,17.52
2023-03-04T01:27:44.336Z,18.30
2023-03-04T01:30:14.098Z,18.23
2023-03-04T01:32:42.016Z,19.80
2023-03-04T01:35:11.323Z,18.40
2023-03-04T01:37:39.372Z,17.80
2023-03-04T01:40:08.799Z,16.38
2023-03-04T01:42:40.523Z,19.52
2023-03-04T01:45:13.767Z,18.80
2023-03-04T01:47:44.118Z,19.58
2023-03-04T01:50:18.614Z,20.45
2023-03-04T01:52:46.814Z,17.85
2023-03-04T01:55:20.075Z,19.58
2023-03-04T01:57:51.253Z,19.02
2023-03-04T02:00:29.101Z,18.85
2023-03-04T02:03:00.566Z,21.27
2023-03-04T02:05:29.619Z,19.65
2023-03-04T02:07:59.570Z,19.13
2023-03-04T02:10:28.298Z,18.48
2023-03-04T02:12:58.121Z,20.95
2023-03-04T02:15:26.345Z,19.88
2023-03-04T02:17:54.360Z,18.55
2023-03-04T02:20:32.751Z,20.25
2023-03-04T02:23:08.517Z,20.65
2023-03-04T02:25:43.712Z,21.10
2023-03-04T02:28:13.753Z,19.70
2023-03-04T02:30:41.964Z,20.23
2023-03-04T02:33:17.106Z,20.40
2023-03-04T02:35:45.366Z,18.60
2023-03-04T02:38:13.843Z,21.10
2023-03-04T02:40:46.813Z,22.00
2023-03-04T02:43:18.090Z,20.90
2023-03-04T02:45:49.587Z,18.70
2023-03-04T02:48:24.005Z,20.33
2023-03-04T02:50:54.384Z,18.38
2023-03-04T02:53:23.259Z,20.90
2023-03-04T02:55:51.684Z,22.42
2023-03-04T02:58:24.176Z,22.85
2023-03-04T03:00:52.257Z,22.20
2023-03-04T03:03:20.435Z,22.58
2023-03-04T03:05:48.819Z,21.05
2023-03-04T03:08:17.049Z,21.55
2023-03-04T03:10:46.150Z,20.48
2023-03-04T03:13:14.127Z,22.58
2023-03-04T03:15:43.624Z,23.05
2023-03-04T03:18:11.913Z,21.83
2023-03-04T03:20:39.963Z,23.25
2023-03-04T03:23:09.529Z,21.98
2023-03-04T03:25:37.556Z,23.45
2023-03-04T03:28:07.199Z,22.60
2023-03-04T03:30:35.242Z,25.95
2023-03-04T03:33:07.233Z,24.67
2023-03-04T03:35:35.574Z,26.42
2023-03-04T03:38:03.866Z,20.63
2023-03-04T03:40:31.869Z,25.35
2023-03-04T03:43:00.377Z,28.25
2023-03-04T03:45:28.545Z,24.00
2023-03-04T03:47:56.464Z,20.95
2023-03-04T03:50:26.154Z,24.90
2023-03-04T03:52:54.252Z,24.98
2023-03-04T03:55:22.818Z,22.48
2023-03-04T03:57:51.031Z,23.65
2023-03-04T04:00:20.062Z,21.67
2023-03-04T04:02:48.860Z,21.45
2023-03-04T04:05:17.098Z,23.13
2023-03-04T04:07:46.474Z,21.83
2023-03-04T04:10:14.700Z,24.40
2023-03-04T04:12:42.690Z,22.13
2023-03-04T04:15:12.735Z,24.83
2023-03-04T04:17:41.261Z,27.25
2023-03-04T04:20:10.599Z,27.15
2023-03-04T04:22:38.622Z,26.27
2023-03-04T04:25:10.723Z,24.58
2023-03-04T04:27:38.882Z,23.23
2023-03-04T04:30:08.315Z,24.73
2023-03-04T04:32:36.354Z,22.77
2023-03-04T04:35:04.696Z,22.23
2023-03-04T04:37:32.821Z,22.17
2023-03-04T04:40:00.882Z,23.38
2023-03-04T04:42:30.394Z,21.95
2023-03-04T04:44:58.483Z,23.48
2023-03-04T04:47:26.506Z,23.08
2023-03-04T04:49:54.557Z,23.80
2023-03-04T04:52:22.648Z,24.23
2023-03-04T04:54:50.621Z,25.30
2023-03-04T04:57:18.780Z,27.00
2023-03-04T04:59:48.743Z,28.23
2023-03-04T05:02:17.113Z,28.05
2023-03-04T05:04:45.313Z,29.65
2023-03-04T05:07:13.450Z,23.67
2023-03-04T05:09:41.515Z,28.63
2023-03-04T05:12:09.795Z,21.85
2023-03-04T05:14:37.847Z,24.70
2023-03-04T05:17:07.358Z,24.40
2023-03-04T05:19:35.889Z,26.95
2023-03-04T05:22:04.357Z,28.10
2023-03-04T05:24:32.410Z,25.27
2023-03-04T05:27:00.602Z,23.52
2023-03-04T05:29:32.246Z,24.77
2023-03-04T05:32:00.462Z,23.02
2023-03-04T05:34:29.847Z,25.35
2023-03-04T05:36:58.060Z,26.05
2023-03-04T05:39:26.269Z,28.52
2023-03-04T05:41:54.858Z,26.75
2023-03-04T05:44:23.747Z,28.38
2023-03-04T05:46:52.022Z,28.77
2023-03-04T05:49:21.339Z,25.67
2023-03-04T05:51:50.733Z,29.55
2023-03-04T05:54:19.067Z,30.75
2023-03-04T05:56:47.374Z,30.83
2023-03-04T05:59:20.559Z,29.60
2023-03-04T06:01:49.415Z,29.80
2023-03-04T06:04:17.700Z,27.80
2023-03-04T06:06:46.579Z,30.77
2023-03-04T06:09:16.636Z,30.08
2023-03-04T06:11:44.664Z,29.60
2023-03-04T06:14:13.077Z,29.00
2023-03-04T06:16:41.247Z,27.90
2023-03-04T06:19:09.350Z,26.63
2023-03-04T06:21:37.443Z,27.33
2023-03-04T06:24:05.995Z,29.15
2023-03-04T06:26:35.503Z,25.02
2023-03-04T06:29:03.613Z,26.75
2023-03-04T06:31:31.817Z,30.55
2023-03-04T06:33:59.845Z,26.63
2023-03-04T06:36:27.833Z,27.25
2023-03-04T06:38:55.946Z,26.52
2023-03-04T06:41:24.240Z,27.05
2023-03-04T06:43:56.154Z,25.33
2023-03-04T06:46:24.983Z,24.85
2023-03-04T06:48:53.186Z,23.17
2023-03-04T06:51:21.573Z,25.10
2023-03-04T06:53:49.608Z,25.70
2023-03-04T06:56:18.126Z,25.35
2023-03-04T06:58:46.501Z,28.88
2023-03-04T07:01:18.321Z,28.88
2023-03-04T07:03:48.269Z,28.00
2023-03-04T07:06:18.635Z,29.40
2023-03-04T07:08:47.048Z,26.73
2023-03-04T07:11:16.003Z,30.65
2023-03-04T07:13:44.334Z,30.45
2023-03-04T07:16:14.605Z,27.48
2023-03-04T07:18:44.373Z,26.05
2023-03-04T07:21:15.902Z,29.35
2023-03-04T07:23:43.982Z,25.15
2023-03-04T07:26:12.400Z,26.75
2023-03-04T07:28:40.685Z,25.80
2023-03-04T07:31:14.089Z,24.02
2023-03-04T07:33:43.863Z,21.00
2023-03-04T07:36:14.857Z,22.33
2023-03-04T07:38:46.113Z,20.75
2023-03-04T07:41:14.584Z,21.00
2023-03-04T07:43:42.812Z,21.45
2023-03-04T07:46:13.279Z,21.52
2023-03-04T07:48:43.128Z,20.52
2023-03-04T07:51:13.405Z,20.95
2023-03-04T07:53:43.822Z,20.33
2023-03-04T07:56:13.874Z,19.42
2023-03-04T07:58:42.158Z,19.63
2023-03-04T08:01:11.947Z,19.60
2023-03-04T08:03:40.481Z,21.42
2023-03-04T08:06:12.278Z,21.10
2023-03-04T08:08:41.113Z,20.13
2023-03-04T08:11:10.664Z,20.38
2023-03-04T08:13:39.209Z,21.08
2023-03-04T08:16:08.519Z,20.33
2023-03-04T08:18:36.632Z,20.63
2023-03-04T08:21:13.369Z,19.48
2023-03-04T08:23:42.527Z,19.95
2023-03-04T08:26:13.227Z,19.08
2023-03-04T08:28:41.807Z,20.05
2023-03-04T08:31:12.212Z,21.85
2023-03-04T08:33:40.714Z,20.05
2023-03-04T08:36:09.834Z,19.48
2023-03-04T08:38:41.599Z,20.30
2023-03-04T08:41:09.870Z,17.67
2023-03-04T08:43:40.773Z,20.50
2023-03-04T08:46:09.533Z,22.05
2023-03-04T08:48:38.899Z,20.27
2023-03-04T08:51:10.905Z,21.30
2023-03-04T08:53:41.171Z,23.25
2023-03-04T08:56:10.294Z,23.30
2023-03-04T08:58:38.767Z,23.15
2023-03-04T09:01:09.103Z,20.75
2023-03-04T09:03:37.390Z,21.77
2023-03-04T09:06:06.965Z,23.25
2023-03-04T09:08:36.120Z,21.42
2023-03-04T09:11:05.928Z,20.63
2023-03-04T09:13:34.841Z,23.83
2023-03-04T09:16:03.218Z,24.70
2023-03-04T09:18:31.517Z,22.40
2023-03-04T09:20:59.552Z,24.35
2023-03-04T09:23:27.860Z,23.00
2023-03-04T09:25:55.900Z,24.25
2023-03-04T09:28:42.165Z,23.17
2023-03-04T09:31:17.604Z,23.95
2023-03-04T09:33:46.149Z,25.40
2023-03-04T09:36:16.339Z,22.92
2023-03-04T09:38:45.123Z,28.38
2023-03-04T09:41:17.742Z,25.83
2023-03-04T09:43:49.710Z,25.00
2023-03-04T09:46:23.785Z,22.42
2023-03-04T09:48:55.924Z,29.35
2023-03-04T09:51:34.207Z,29.42
2023-03-04T09:54:08.710Z,25.08
2023-03-04T09:56:39.692Z,27.80
2023-03-04T09:59:18.429Z,28.27
2023-03-04T10:01:51.129Z,28.48
2023-03-04T10:04:30.429Z,29.17
2023-03-04T10:06:58.623Z,28.30
2023-03-04T10:09:29.743Z,30.67
2023-03-04T10:12:04.095Z,28.88
2023-03-04T10:14:38.666Z,33.67
2023-03-04T10:17:19.143Z,31.95
2023-03-04T10:19:56.825Z,31.40
2023-03-04T10:22:32.317Z,29.75
2023-03-04T10:25:03.906Z,33.42
2023-03-04T10:27:32.814Z,30.80
2023-03-04T10:30:05.218Z,31.00
2023-03-04T10:32:33.353Z,29.85
2023-03-04T10:35:01.553Z,29.83
2023-03-04T10:37:45.225Z,28.23
2023-03-04T10:40:21.000Z,30.05
2023-03-04T10:42:50.417Z,28.95
2023-03-04T10:45:25.460Z,27.83
2023-03-04T10:47:56.705Z,29.05
2023-03-04T10:50:27.383Z,30.10
2023-03-04T10:52:56.956Z,28.58
2023-03-04T10:55:29.447Z,28.90
2023-03-04T10:58:03.866Z,30.80
2023-03-04T11:00:35.149Z,28.67
2023-03-04T11:03:29.339Z,29.55
2023-03-04T11:06:16.713Z,28.88
2023-03-04T11:08:45.084Z,27.85
2023-03-04T11:11:34.881Z,29.15
2023-03-04T11:14:13.937Z,30.40
2023-03-04T11:16:54.455Z,26.13
2023-03-04T11:19:26.296Z,29.00
2023-03-04T11:21:54.932Z,25.05
2023-03-04T11:24:29.376Z,26.83
2023-03-04T11:27:03.708Z,25.67
2023-03-04T11:29:37.935Z,27.60
2023-03-04T11:32:12.949Z,26.70
2023-03-04T11:34:47.863Z,28.35
2023-03-04T11:37:23.732Z,25.23
2023-03-04T11:39:55.684Z,26.45
2023-03-04T11:42:34.630Z,25.70
2023-03-04T11:45:03.196Z,25.85
2023-03-04T11:47:58.817Z,26.27
2023-03-04T11:50:45.479Z,25.73
2023-03-04T11:53:30.455Z,23.10
2023-03-04T11:56:11.278Z,24.10
2023-03-04T11:58:51.551Z,26.95
2023-03-04T12:01:29.438Z,24.70
2023-03-04T12:04:26.257Z,28.55
2023-03-04T12:07:07.573Z,26.38
2023-03-04T12:09:43.789Z,25.38
2023-03-04T12:12:31.932Z,27.02
2023-03-04T12:15:12.579Z,24.90
2023-03-04T12:18:03.321Z,29.80
2023-03-04T12:20:58.115Z,27.75
2023-03-04T12:23:41.386Z,26.42
2023-03-04T12:26:20.428Z,28.95
2023-03-04T12:28:58.238Z,27.05
2023-03-04T12:31:36.700Z,29.83
2023-03-04T12:34:31.532Z,32.55
2023-03-04T12:37:20.269Z,30.98
2023-03-04T12:40:01.084Z,27.40
2023-03-04T12:42:39.479Z,28.77
2023-03-04T12:45:21.499Z,30.35
2023-03-04T12:48:02.584Z,28.95
2023-03-04T12:50:37.375Z,29.15
2023-03-04T12:53:17.462Z,27.95
2023-03-04T12:55:48.226Z,26.02
2023-03-04T12:58:20.602Z,26.75
2023-03-04T13:00:58.554Z,25.02
2023-03-04T13:03:37.002Z,24.38
2023-03-04T13:06:15.274Z,24.15
2023-03-04T13:08:58.334Z,22.73
2023-03-04T13:12:04.775Z,22.15
2023-03-04T13:14:34.924Z,21.02
2023-03-04T13:17:37.460Z,24.13
2023-03-04T13:20:23.099Z,25.52
2023-03-04T13:22:56.901Z,25.55
2023-03-04T13:25:42.278Z,21.42
2023-03-04T13:28:18.631Z,23.08
2023-03-04T13:31:26.441Z,22.23
2023-03-04T13:34:03.117Z,21.63
2023-03-04T13:36:59.284Z,21.83
2023-03-04T13:39:32.731Z,23.40
2023-03-04T13:42:03.881Z,24.20
2023-03-04T13:45:00.611Z,21.50
2023-03-04T13:47:50.107Z,22.90
2023-03-04T13:50:38.566Z,21.88
2023-03-04T13:53:30.805Z,24.27
2023-03-04T13:56:07.193Z,23.35
2023-03-04T13:58:37.675Z,21.20
2023-03-04T14:01:07.162Z,21.95
2023-03-04T14:03:36.818Z,22.23
2023-03-04T14:06:13.017Z,23.20
2023-03-04T14:08:40.981Z,20.40
2023-03-04T14:11:14.486Z,21.58
2023-03-04T14:13:44.560Z,22.67
2023-03-04T14:16:13.039Z,24.52
2023-03-04T14:18:41.679Z,22.60
2023-03-04T14:21:16.541Z,23.40
2023-03-04T14:23:44.639Z,22.42
2023-03-04T14:26:14.951Z,22.52
2023-03-04T14:28:49.995Z,22.45
2023-03-04T14:31:20.580Z,22.00
2023-03-04T14:33:50.859Z,24.50
2023-03-04T14:36:21.992Z,24.98
2023-03-04T14:38:54.604Z,21.55
2023-03-04T14:41:27.721Z,24.23
2023-03-04T14:44:04.595Z,21.20
2023-03-04T14:46:37.737Z,22.20
2023-03-04T14:49:05.820Z,22.42
2023-03-04T14:51:46.981Z,22.75
2023-03-04T14:54:32.477Z,22.77
2023-03-04T14:57:02.618Z,21.70
2023-03-04T14:59:34.182Z,21.05
2023-03-04T15:02:30.998Z,21.83
2023-03-04T15:05:01.665Z,22.63
2023-03-04T15:07:34.817Z,23.48
2023-03-04T15:10:05.102Z,21.73
2023-03-04T15:12:36.273Z,23.10
2023-03-04T15:15:27.292Z,21.85
2023-03-04T15:17:59.785Z,22.10
2023-03-04T15:20:29.064Z,21.15
2023-03-04T15:23:08.420Z,22.48
2023-03-04T15:25:36.928Z,21.20
2023-03-04T15:28:05.479Z,22.90
2023-03-04T15:30:35.517Z,20.98
2023-03-04T15:33:03.641Z,21.55
2023-03-04T15:35:34.345Z,21.02
2023-03-04T15:38:02.895Z,21.65
2023-03-04T15:40:33.089Z,19.45
2023-03-04T15:43:03.493Z,20.25
2023-03-04T15:45:35.906Z,19.40
2023-03-04T15:48:08.118Z,19.45
2023-03-04T15:50:38.314Z,20.50
2023-03-04T15:53:09.515Z,18.75
2023-03-04T15:55:37.872Z,19.30
2023-03-04T15:58:07.430Z,18.77
2023-03-04T16:00:35.368Z,20.60
2023-03-04T16:03:05.051Z,19.50
2023-03-04T16:05:37.189Z,20.25
2023-03-04T16:08:05.884Z,19.10
2023-03-04T16:10:38.254Z,21.02
2023-03-04T16:13:17.640Z,17.02
2023-03-04T16:15:52.768Z,20.45
2023-03-04T16:18:24.633Z,21.17
2023-03-04T16:20:59.225Z,20.05
2023-03-04T16:23:30.206Z,17.77
2023-03-04T16:25:59.465Z,17.95
2023-03-04T16:28:28.666Z,16.80
2023-03-04T16:31:00.630Z,19.02
2023-03-04T16:33:36.136Z,17.13
2023-03-04T16:36:15.152Z,18.60
2023-03-04T16:38:47.264Z,18.38
2023-03-04T16:41:23.746Z,18.75
2023-03-04T16:43:57.005Z,19.42
2023-03-04T16:46:29.117Z,19.20
2023-03-04T16:49:02.604Z,18.15
2023-03-04T16:51:39.842Z,20.75
2023-03-04T16:54:20.641Z,19.05
2023-03-04T16:56:54.880Z,19.05
2023-03-04T16:59:28.386Z,18.05
2023-03-04T17:02:02.342Z,18.85
2023-03-04T17:04:37.951Z,19.60
2023-03-04T17:07:10.344Z,18.40
2023-03-04T17:09:49.172Z,21.02
2023-03-04T17:12:25.145Z,19.85
2023-03-04T17:15:00.268Z,18.70
2023-03-04T17:17:34.508Z,18.30
2023-03-04T17:20:12.163Z,17.77
2023-03-04T17:22:48.994Z,17.67
2023-03-04T17:25:25.799Z,18.05
2023-03-04T17:28:02.806Z,18.00
2023-03-04T17:30:37.992Z,18.20
2023-03-04T17:33:10.798Z,20.50
2023-03-04T17:35:49.600Z,19.13
2023-03-04T17:38:24.153Z,18.90
2023-03-04T17:40:58.610Z,18.58
2023-03-04T17:43:36.984Z,19.05
2023-03-04T17:46:14.868Z,17.77
2023-03-04T17:48:45.290Z,18.20
2023-03-04T17:51:15.039Z,19.75
2023-03-04T17:53:46.515Z,18.75
2023-03-04T17:56:20.415Z,17.60
2023-03-04T17:58:50.920Z,18.02
2023-03-04T18:01:23.165Z,21.33
2023-03-04T18:03:57.076Z,20.35
2023-03-04T18:06:32.985Z,19.95
2023-03-04T18:09:08.395Z,18.25
2023-03-04T18:11:45.449Z,21.42
2023-03-04T18:14:19.363Z,21.67
2023-03-04T18:16:50.110Z,19.92
2023-03-04T18:19:25.464Z,19.95
2023-03-04T18:22:03.737Z,21.65
2023-03-04T18:24:43.606Z,20.45
2023-03-04T18:27:18.491Z,17.92
2023-03-04T18:29:55.218Z,19.75
2023-03-04T18:32:26.689Z,21.10
2023-03-04T18:34:58.004Z,19.20
2023-03-04T18:37:30.971Z,18.33
2023-03-04T18:39:59.540Z,19.15
2023-03-04T18:42:32.332Z,21.05
2023-03-04T18:45:06.505Z,19.83
2023-03-04T18:47:39.796Z,20.70
2023-03-04T18:50:18.292Z,21.05
2023-03-04T18:52:49.999Z,20.48
2023-03-04T18:55:18.452Z,20.17
2023-03-04T18:57:52.164Z,19.85
2023-03-04T19:00:27.313Z,20.33
2023-03-04T19:03:02.630Z,21.58
2023-03-04T19:05:36.877Z,20.83
2023-03-04T19:08:09.160Z,20.48
2023-03-04T19:10:40.808Z,21.88
2023-03-04T19:13:10.839Z,20.75
2023-03-04T19:15:38.920Z,20.10
2023-03-04T19:18:11.895Z,19.75
2023-03-04T19:20:46.535Z,23.35
2023-03-04T19:23:24.210Z,21.38
2023-03-04T19:25:53.820Z,23.27
2023-03-04T19:28:22.069Z,24.25
2023-03-04T19:31:01.367Z,20.77
2023-03-04T19:33:34.560Z,24.60
2023-03-04T19:36:06.540Z,22.23
2023-03-04T19:38:43.874Z,21.90
2023-03-04T19:41:19.844Z,21.35
2023-03-04T19:43:52.876Z,22.83
2023-03-04T19:46:25.346Z,20.90
2023-03-04T19:48:54.763Z,21.23
2023-03-04T19:51:28.333Z,21.70
2023-03-04T19:54:00.697Z,19.70
2023-03-04T19:56:32.371Z,17.75
2023-03-04T19:59:03.527Z,20.08
2023-03-04T20:01:39.221Z,19.23
2023-03-04T20:04:14.004Z,19.35
2023-03-04T20:06:48.417Z,19.60
2023-03-04T20:09:24.195Z,20.13
2023-03-04T20:11:59.163Z,19.45
2023-03-04T20:14:34.907Z,20.33
2023-03-04T20:17:09.735Z,21.98
2023-03-04T20:19:44.158Z,20.45
2023-03-04T20:22:18.898Z,19.05
2023-03-04T20:24:57.506Z,22.13
2023-03-04T20:27:32.200Z,19.65
2023-03-04T20:30:05.298Z,20.35
2023-03-04T20:32:37.396Z,19.92
2023-03-04T20:35:06.091Z,20.42
2023-03-04T20:37:34.738Z,19.63
2023-03-04T20:40:04.477Z,22.98
2023-03-04T20:42:32.583Z,21.25
2023-03-04T20:45:00.845Z,20.55
2023-03-04T20:47:28.875Z,18.38
2023-03-04T20:49:56.820Z,17.92
2023-03-04T20:52:25.436Z,18.40
2023-03-04T20:54:54.112Z,16.95
2023-03-04T20:57:23.602Z,18.75
2023-03-04T20:59:51.906Z,16.90
2023-03-04T21:02:20.754Z,18.98
2023-03-04T21:04:49.022Z,20.13
2023-03-04T21:07:17.287Z,19.35
2023-03-04T21:09:45.303Z,19.20
2023-03-04T21:12:13.461Z,22.58
2023-03-04T21:14:45.077Z,19.02
2023-03-04T21:17:13.829Z,16.88
2023-03-04T21:19:44.348Z,19.13
2023-03-04T21:22:16.035Z,18.48
2023-03-04T21:24:45.113Z,17.23
2023-03-04T21:27:16.587Z,16.50
2023-03-04T21:29:46.221Z,18.02
2023-03-04T21:32:24.417Z,15.93
2023-03-04T21:34:54.953Z,18.90
2023-03-04T21:37:24.475Z,13.77
2023-03-04T21:39:53.016Z,14.65
2023-03-04T21:42:21.517Z,15.77
2023-03-04T21:44:51.976Z,15.75
2023-03-04T21:47:20.731Z,14.55
2023-03-04T21:49:51.624Z,14.27
2023-03-04T21:52:21.787Z,13.65
2023-03-04T21:54:50.638Z,14.70
2023-03-04T21:57:18.899Z,17.27
2023-03-04T21:59:47.183Z,16.75
2023-03-04T22:02:18.392Z,14.85
2023-03-04T22:04:46.820Z,17.00
2023-03-04T22:07:17.146Z,15.50
2023-03-04T22:09:45.163Z,14.43
2023-03-04T22:12:15.155Z,13.88
2023-03-04T22:14:44.232Z,13.95
2023-03-04T22:17:12.469Z,14.38
2023-03-04T22:19:42.070Z,14.40
2023-03-04T22:22:10.194Z,15.73
2023-03-04T22:24:39.625Z,13.85
2023-03-04T22:27:07.772Z,13.27
2023-03-04T22:29:35.972Z,13.35
2023-03-04T22:32:04.151Z,11.98
2023-03-04T22:34:32.569Z,14.52
2023-03-04T22:37:02.129Z,13.30
2023-03-04T22:39:30.237Z,14.45
2023-03-04T22:41:58.517Z,14.15
2023-03-04T22:44:26.833Z,16.50
2023-03-04T22:46:54.906Z,17.27
2023-03-04T22:49:22.886Z,15.85
2023-03-04T22:51:51.362Z,13.63
2023-03-04T22:54:20.845Z,14.05
2023-03-04T22:56:49.029Z,14.98
2023-03-04T22:59:17.209Z,16.23
2023-03-04T23:01:45.568Z,15.48
2023-03-04T23:04:13.620Z,14.68
2023-03-04T23:06:44.703Z,14.88
2023-03-04T23:09:12.715Z,14.60
2023-03-04T23:11:42.671Z,15.88
2023-03-04T23:14:12.045Z,16.42
2023-03-04T23:16:43.294Z,13.40
2023-03-04T23:19:13.852Z,14.85
2023-03-04T23:21:42.481Z,13.68
2023-03-04T23:24:13.262Z,12.68
2023-03-04T23:26:43.806Z,13.30
2023-03-04T23:29:16.407Z,12.57
2023-03-04T23:31:45.462Z,14.40
2023-03-04T23:34:14.203Z,13.35
2023-03-04T23:36:43.078Z,12.82
2023-03-04T23:39:13.091Z,11.90
2023-03-04T23:41:42.674Z,13.70
2023-03-04T23:44:12.130Z,10.57
2023-03-04T23:46:40.586Z,11.55
2023-03-04T23:49:10.068Z,11.35
2023-03-04T23:51:40.965Z,11.25
2023-03-04T23:54:08.881Z,9.85
2023-03-04T23:56:36.987Z,10.13
2023-03-04T23:59:07.670Z,9.55
